sensor_id;sensor_type;location;lat;lon;timestamp;P1;durP1;ratioP1;P2;durP2;ratioP2
49392;SDS011;35268;42.642;23.308;2022-08-19T00:01:21;7.65;;;4.18;;
49392;SDS011;35268;42.642;23.308;2022-08-19T00:03:47;5.57;;;3.75;;
49392;SDS011;35268;42.642;23.308;2022-08-19T00:06:12;5.47;;;3.47;;
49392;SDS011;35268;42.642;23.308;2022-08-19T00:08:38;7.22;;;4.25;;
49392;SDS011;35268;42.642;23.308;2022-08-19T00:11:04;6.13;;;3.67;;
49392;SDS011;35268;42.642;23.308;2022-08-19T00:13:30;5.68;;;3.90;;
49392;SDS011;35268;42.642;23.308;2022-08-19T00:15:55;6.53;;;3.50;;
49392;SDS011;35268;42.642;23.308;2022-08-19T00:18:22;7.43;;;3.55;;
49392;SDS011;35268;42.642;23.308;2022-08-19T00:20:47;7.35;;;3.50;;
49392;SDS011;35268;42.642;23.308;2022-08-19T00:23:13;9.10;;;3.92;;
49392;SDS011;35268;42.642;23.308;2022-08-19T00:25:39;5.68;;;3.63;;
49392;SDS011;35268;42.642;23.308;2022-08-19T00:28:05;4.72;;;3.30;;
49392;SDS011;35268;42.642;23.308;2022-08-19T00:30:31;5.32;;;3.75;;
49392;SDS011;35268;42.642;23.308;2022-08-19T00:32:57;7.57;;;3.35;;
49392;SDS011;35268;42.642;23.308;2022-08-19T00:35:22;8.48;;;4.03;;
49392;SDS011;35268;42.642;23.308;2022-08-19T00:37:48;6.00;;;3.70;;
49392;SDS011;35268;42.642;23.308;2022-08-19T00:40:15;6.80;;;3.90;;
49392;SDS011;35268;42.642;23.308;2022-08-19T00:42:42;7.63;;;3.55;;
49392;SDS011;35268;42.642;23.308;2022-08-19T00:45:13;7.25;;;4.18;;
49392;SDS011;35268;42.642;23.308;2022-08-19T00:47:42;6.28;;;4.10;;
49392;SDS011;35268;42.642;23.308;2022-08-19T00:50:09;7.90;;;3.67;;
49392;SDS011;35268;42.642;23.308;2022-08-19T00:52:41;10.13;;;3.65;;
49392;SDS011;35268;42.642;23.308;2022-08-19T00:55:10;7.93;;;4.28;;
49392;SDS011;35268;42.642;23.308;2022-08-19T00:57:42;12.20;;;4.07;;
49392;SDS011;35268;42.642;23.308;2022-08-19T01:00:14;8.48;;;4.40;;
49392;SDS011;35268;42.642;23.308;2022-08-19T01:02:41;6.55;;;3.88;;
49392;SDS011;35268;42.642;23.308;2022-08-19T01:05:10;4.93;;;3.70;;
49392;SDS011;35268;42.642;23.308;2022-08-19T01:07:40;6.20;;;3.60;;
49392;SDS011;35268;42.642;23.308;2022-08-19T01:10:08;6.43;;;4.00;;
49392;SDS011;35268;42.642;23.308;2022-08-19T01:12:37;4.85;;;3.63;;
49392;SDS011;35268;42.642;23.308;2022-08-19T01:15:04;5.95;;;3.85;;
49392;SDS011;35268;42.642;23.308;2022-08-19T01:17:34;7.28;;;4.35;;
49392;SDS011;35268;42.642;23.308;2022-08-19T01:20:03;8.63;;;3.90;;
49392;SDS011;35268;42.642;23.308;2022-08-19T01:22:46;4.68;;;3.33;;
49392;SDS011;35268;42.642;23.308;2022-08-19T01:25:20;7.28;;;4.43;;
49392;SDS011;35268;42.642;23.308;2022-08-19T01:27:51;5.82;;;3.55;;
49392;SDS011;35268;42.642;23.308;2022-08-19T01:30:19;5.97;;;3.85;;
49392;SDS011;35268;42.642;23.308;2022-08-19T01:32:48;5.55;;;3.90;;
49392;SDS011;35268;42.642;23.308;2022-08-19T01:35:14;8.48;;;3.67;;
49392;SDS011;35268;42.642;23.308;2022-08-19T01:37:43;5.70;;;3.90;;
49392;SDS011;35268;42.642;23.308;2022-08-19T01:40:11;6.20;;;4.05;;
49392;SDS011;35268;42.642;23.308;2022-08-19T01:42:37;10.52;;;4.60;;
49392;SDS011;35268;42.642;23.308;2022-08-19T01:45:03;9.48;;;4.13;;
49392;SDS011;35268;42.642;23.308;2022-08-19T01:47:29;6.97;;;4.25;;
49392;SDS011;35268;42.642;23.308;2022-08-19T01:49:55;11.45;;;5.15;;
49392;SDS011;35268;42.642;23.308;2022-08-19T01:52:20;7.18;;;3.92;;
49392;SDS011;35268;42.642;23.308;2022-08-19T01:54:46;10.30;;;4.55;;
49392;SDS011;35268;42.642;23.308;2022-08-19T01:57:12;5.20;;;3.70;;
49392;SDS011;35268;42.642;23.308;2022-08-19T01:59:40;8.00;;;3.97;;
49392;SDS011;35268;42.642;23.308;2022-08-19T02:02:07;7.05;;;4.15;;
49392;SDS011;35268;42.642;23.308;2022-08-19T02:04:33;5.40;;;3.85;;
49392;SDS011;35268;42.642;23.308;2022-08-19T02:06:59;6.63;;;4.30;;
49392;SDS011;35268;42.642;23.308;2022-08-19T02:09:25;10.65;;;4.13;;
49392;SDS011;35268;42.642;23.308;2022-08-19T02:11:50;6.18;;;4.47;;
49392;SDS011;35268;42.642;23.308;2022-08-19T02:14:16;7.78;;;4.90;;
49392;SDS011;35268;42.642;23.308;2022-08-19T02:16:41;7.57;;;4.72;;
49392;SDS011;35268;42.642;23.308;2022-08-19T02:19:06;6.10;;;3.75;;
49392;SDS011;35268;42.642;23.308;2022-08-19T02:21:32;5.63;;;4.10;;
49392;SDS011;35268;42.642;23.308;2022-08-19T02:23:58;9.35;;;4.07;;
49392;SDS011;35268;42.642;23.308;2022-08-19T02:26:24;7.07;;;3.83;;
49392;SDS011;35268;42.642;23.308;2022-08-19T02:28:51;7.00;;;4.82;;
49392;SDS011;35268;42.642;23.308;2022-08-19T02:31:18;5.85;;;4.13;;
49392;SDS011;35268;42.642;23.308;2022-08-19T02:33:46;8.43;;;4.53;;
49392;SDS011;35268;42.642;23.308;2022-08-19T02:36:12;8.18;;;4.82;;
49392;SDS011;35268;42.642;23.308;2022-08-19T02:38:40;11.52;;;4.38;;
49392;SDS011;35268;42.642;23.308;2022-08-19T02:41:07;4.88;;;3.85;;
49392;SDS011;35268;42.642;23.308;2022-08-19T02:43:36;6.07;;;3.65;;
49392;SDS011;35268;42.642;23.308;2022-08-19T02:46:13;6.25;;;3.85;;
49392;SDS011;35268;42.642;23.308;2022-08-19T02:48:43;12.50;;;3.95;;
49392;SDS011;35268;42.642;23.308;2022-08-19T02:51:08;8.68;;;4.03;;
49392;SDS011;35268;42.642;23.308;2022-08-19T02:53:40;6.45;;;4.40;;
49392;SDS011;35268;42.642;23.308;2022-08-19T02:56:06;8.20;;;5.22;;
49392;SDS011;35268;42.642;23.308;2022-08-19T02:58:32;12.70;;;4.60;;
49392;SDS011;35268;42.642;23.308;2022-08-19T03:00:58;9.65;;;4.03;;
49392;SDS011;35268;42.642;23.308;2022-08-19T03:03:24;9.60;;;4.75;;
49392;SDS011;35268;42.642;23.308;2022-08-19T03:05:50;5.05;;;3.88;;
49392;SDS011;35268;42.642;23.308;2022-08-19T03:08:15;5.43;;;4.18;;
49392;SDS011;35268;42.642;23.308;2022-08-19T03:10:42;5.53;;;4.25;;
49392;SDS011;35268;42.642;23.308;2022-08-19T03:13:15;9.50;;;4.30;;
49392;SDS011;35268;42.642;23.308;2022-08-19T03:15:42;7.07;;;4.47;;
49392;SDS011;35268;42.642;23.308;2022-08-19T03:18:10;6.97;;;4.53;;
49392;SDS011;35268;42.642;23.308;2022-08-19T03:20:46;5.20;;;3.97;;
49392;SDS011;35268;42.642;23.308;2022-08-19T03:23:14;6.22;;;4.07;;
49392;SDS011;35268;42.642;23.308;2022-08-19T03:25:40;7.47;;;4.75;;
49392;SDS011;35268;42.642;23.308;2022-08-19T03:28:10;6.30;;;4.55;;
49392;SDS011;35268;42.642;23.308;2022-08-19T03:30:37;7.57;;;4.63;;
49392;SDS011;35268;42.642;23.308;2022-08-19T03:33:04;6.28;;;4.50;;
49392;SDS011;35268;42.642;23.308;2022-08-19T03:35:30;7.70;;;4.50;;
49392;SDS011;35268;42.642;23.308;2022-08-19T03:37:56;7.15;;;5.05;;
49392;SDS011;35268;42.642;23.308;2022-08-19T03:40:23;11.55;;;5.13;;
49392;SDS011;35268;42.642;23.308;2022-08-19T03:42:49;13.88;;;6.00;;
49392;SDS011;35268;42.642;23.308;2022-08-19T03:45:15;12.27;;;5.03;;
49392;SDS011;35268;42.642;23.308;2022-08-19T03:47:40;16.50;;;6.57;;
49392;SDS011;35268;42.642;23.308;2022-08-19T03:50:06;12.75;;;5.82;;
49392;SDS011;35268;42.642;23.308;2022-08-19T03:52:31;10.70;;;6.57;;
49392;SDS011;35268;42.642;23.308;2022-08-19T03:54:57;10.93;;;5.93;;
49392;SDS011;35268;42.642;23.308;2022-08-19T03:57:22;10.95;;;5.43;;
49392;SDS011;35268;42.642;23.308;2022-08-19T03:59:48;12.52;;;5.65;;
49392;SDS011;35268;42.642;23.308;2022-08-19T04:02:13;6.97;;;4.97;;
49392;SDS011;35268;42.642;23.308;2022-08-19T04:04:40;7.97;;;5.20;;
49392;SDS011;35268;42.642;23.308;2022-08-19T04:07:08;8.77;;;5.25;;
49392;SDS011;35268;42.642;23.308;2022-08-19T04:09:35;13.80;;;5.35;;
49392;SDS011;35268;42.642;23.308;2022-08-19T04:12:02;7.97;;;5.25;;
49392;SDS011;35268;42.642;23.308;2022-08-19T04:14:30;9.55;;;5.80;;
49392;SDS011;35268;42.642;23.308;2022-08-19T04:16:56;10.48;;;5.68;;
49392;SDS011;35268;42.642;23.308;2022-08-19T04:19:23;7.32;;;5.10;;
49392;SDS011;35268;42.642;23.308;2022-08-19T04:21:50;11.95;;;5.05;;
49392;SDS011;35268;42.642;23.308;2022-08-19T04:24:17;9.23;;;5.90;;
49392;SDS011;35268;42.642;23.308;2022-08-19T04:26:43;11.32;;;5.65;;
49392;SDS011;35268;42.642;23.308;2022-08-19T04:29:11;13.52;;;5.47;;
49392;SDS011;35268;42.642;23.308;2022-08-19T04:31:39;8.65;;;5.30;;
49392;SDS011;35268;42.642;23.308;2022-08-19T04:34:06;8.15;;;5.30;;
49392;SDS011;35268;42.642;23.308;2022-08-19T04:36:34;9.70;;;5.60;;
49392;SDS011;35268;42.642;23.308;2022-08-19T04:39:03;8.82;;;5.70;;
49392;SDS011;35268;42.642;23.308;2022-08-19T04:41:31;8.35;;;5.40;;
49392;SDS011;35268;42.642;23.308;2022-08-19T04:44:15;11.98;;;5.20;;
49392;SDS011;35268;42.642;23.308;2022-08-19T04:46:44;9.60;;;5.28;;
49392;SDS011;35268;42.642;23.308;2022-08-19T04:49:11;10.15;;;5.03;;
49392;SDS011;35268;42.642;23.308;2022-08-19T04:51:40;8.93;;;5.60;;
49392;SDS011;35268;42.642;23.308;2022-08-19T04:54:07;17.17;;;5.60;;
49392;SDS011;35268;42.642;23.308;2022-08-19T04:56:33;20.48;;;7.10;;
49392;SDS011;35268;42.642;23.308;2022-08-19T04:58:59;21.27;;;6.45;;
49392;SDS011;35268;42.642;23.308;2022-08-19T05:01:29;22.65;;;7.20;;
49392;SDS011;35268;42.642;23.308;2022-08-19T05:03:57;12.88;;;6.50;;
49392;SDS011;35268;42.642;23.308;2022-08-19T05:06:26;26.23;;;8.23;;
49392;SDS011;35268;42.642;23.308;2022-08-19T05:08:53;16.08;;;8.25;;
49392;SDS011;35268;42.642;23.308;2022-08-19T05:11:20;21.50;;;7.13;;
49392;SDS011;35268;42.642;23.308;2022-08-19T05:13:50;12.32;;;6.65;;
49392;SDS011;35268;42.642;23.308;2022-08-19T05:16:18;18.80;;;6.43;;
49392;SDS011;35268;42.642;23.308;2022-08-19T05:18:44;20.17;;;6.47;;
49392;SDS011;35268;42.642;23.308;2022-08-19T05:21:29;11.68;;;6.75;;
49392;SDS011;35268;42.642;23.308;2022-08-19T05:24:14;27.17;;;7.00;;
49392;SDS011;35268;42.642;23.308;2022-08-19T05:26:41;17.88;;;6.60;;
49392;SDS011;35268;42.642;23.308;2022-08-19T05:29:10;19.30;;;6.28;;
49392;SDS011;35268;42.642;23.308;2022-08-19T05:31:36;24.38;;;6.68;;
49392;SDS011;35268;42.642;23.308;2022-08-19T05:34:03;8.85;;;5.60;;
49392;SDS011;35268;42.642;23.308;2022-08-19T05:36:38;14.20;;;5.78;;
49392;SDS011;35268;42.642;23.308;2022-08-19T05:39:06;13.27;;;6.75;;
49392;SDS011;35268;42.642;23.308;2022-08-19T05:41:33;12.98;;;6.38;;
49392;SDS011;35268;42.642;23.308;2022-08-19T05:44:03;21.83;;;6.60;;
49392;SDS011;35268;42.642;23.308;2022-08-19T05:46:31;20.00;;;6.57;;
49392;SDS011;35268;42.642;23.308;2022-08-19T05:48:57;25.10;;;7.25;;
49392;SDS011;35268;42.642;23.308;2022-08-19T05:51:23;28.30;;;7.97;;
49392;SDS011;35268;42.642;23.308;2022-08-19T05:53:50;15.50;;;7.13;;
49392;SDS011;35268;42.642;23.308;2022-08-19T05:56:16;21.13;;;8.52;;
49392;SDS011;35268;42.642;23.308;2022-08-19T05:58:42;15.07;;;8.65;;
49392;SDS011;35268;42.642;23.308;2022-08-19T06:01:11;20.70;;;7.95;;
49392;SDS011;35268;42.642;23.308;2022-08-19T06:03:38;19.38;;;8.18;;
49392;SDS011;35268;42.642;23.308;2022-08-19T06:06:05;25.83;;;8.18;;
49392;SDS011;35268;42.642;23.308;2022-08-19T06:08:34;17.13;;;8.23;;
49392;SDS011;35268;42.642;23.308;2022-08-19T06:11:21;27.48;;;10.50;;
49392;SDS011;35268;42.642;23.308;2022-08-19T06:13:50;19.27;;;7.18;;
49392;SDS011;35268;42.642;23.308;2022-08-19T06:16:20;14.90;;;7.05;;
49392;SDS011;35268;42.642;23.308;2022-08-19T06:18:48;23.20;;;6.95;;
49392;SDS011;35268;42.642;23.308;2022-08-19T06:21:21;18.58;;;6.38;;
49392;SDS011;35268;42.642;23.308;2022-08-19T06:23:48;17.52;;;6.80;;
49392;SDS011;35268;42.642;23.308;2022-08-19T06:26:16;13.02;;;6.38;;
49392;SDS011;35268;42.642;23.308;2022-08-19T06:28:43;10.45;;;6.18;;
49392;SDS011;35268;42.642;23.308;2022-08-19T06:31:11;18.15;;;5.72;;
49392;SDS011;35268;42.642;23.308;2022-08-19T06:33:39;15.23;;;5.63;;
49392;SDS011;35268;42.642;23.308;2022-08-19T06:36:05;7.78;;;5.15;;
49392;SDS011;35268;42.642;23.308;2022-08-19T06:38:31;9.13;;;4.93;;
49392;SDS011;35268;42.642;23.308;2022-08-19T06:41:04;11.25;;;5.32;;
49392;SDS011;35268;42.642;23.308;2022-08-19T06:43:30;13.48;;;5.40;;
49392;SDS011;35268;42.642;23.308;2022-08-19T06:45:56;13.70;;;5.68;;
49392;SDS011;35268;42.642;23.308;2022-08-19T06:48:21;12.27;;;6.28;;
49392;SDS011;35268;42.642;23.308;2022-08-19T06:50:47;12.15;;;5.75;;
49392;SDS011;35268;42.642;23.308;2022-08-19T06:53:14;14.45;;;5.88;;
49392;SDS011;35268;42.642;23.308;2022-08-19T06:55:40;15.90;;;6.40;;
49392;SDS011;35268;42.642;23.308;2022-08-19T06:58:05;13.30;;;6.25;;
49392;SDS011;35268;42.642;23.308;2022-08-19T07:00:31;9.95;;;5.72;;
49392;SDS011;35268;42.642;23.308;2022-08-19T07:02:57;17.27;;;6.22;;
49392;SDS011;35268;42.642;23.308;2022-08-19T07:05:23;10.93;;;6.22;;
49392;SDS011;35268;42.642;23.308;2022-08-19T07:07:48;12.85;;;5.70;;
49392;SDS011;35268;42.642;23.308;2022-08-19T07:10:14;11.35;;;6.63;;
49392;SDS011;35268;42.642;23.308;2022-08-19T07:12:40;19.33;;;9.07;;
49392;SDS011;35268;42.642;23.308;2022-08-19T07:15:06;11.68;;;5.90;;
49392;SDS011;35268;42.642;23.308;2022-08-19T07:17:33;9.65;;;5.93;;
49392;SDS011;35268;42.642;23.308;2022-08-19T07:20:03;11.13;;;6.35;;
49392;SDS011;35268;42.642;23.308;2022-08-19T07:22:31;13.77;;;5.72;;
49392;SDS011;35268;42.642;23.308;2022-08-19T07:24:58;14.00;;;6.28;;
49392;SDS011;35268;42.642;23.308;2022-08-19T07:27:24;13.93;;;6.10;;
49392;SDS011;35268;42.642;23.308;2022-08-19T07:29:50;9.93;;;5.75;;
49392;SDS011;35268;42.642;23.308;2022-08-19T07:32:18;10.85;;;5.78;;
49392;SDS011;35268;42.642;23.308;2022-08-19T07:34:43;12.43;;;6.25;;
49392;SDS011;35268;42.642;23.308;2022-08-19T07:37:10;14.35;;;5.25;;
49392;SDS011;35268;42.642;23.308;2022-08-19T07:39:36;10.18;;;5.75;;
49392;SDS011;35268;42.642;23.308;2022-08-19T07:42:06;14.30;;;5.88;;
49392;SDS011;35268;42.642;23.308;2022-08-19T07:44:34;13.35;;;5.65;;
49392;SDS011;35268;42.642;23.308;2022-08-19T07:47:01;13.93;;;5.22;;
49392;SDS011;35268;42.642;23.308;2022-08-19T07:49:28;14.05;;;5.30;;
49392;SDS011;35268;42.642;23.308;2022-08-19T07:52:00;13.32;;;6.60;;
49392;SDS011;35268;42.642;23.308;2022-08-19T07:54:30;8.98;;;5.13;;
49392;SDS011;35268;42.642;23.308;2022-08-19T07:56:59;13.55;;;5.82;;
49392;SDS011;35268;42.642;23.308;2022-08-19T07:59:25;12.75;;;5.40;;
49392;SDS011;35268;42.642;23.308;2022-08-19T08:01:51;17.90;;;6.40;;
49392;SDS011;35268;42.642;23.308;2022-08-19T08:04:17;9.98;;;5.47;;
49392;SDS011;35268;42.642;23.308;2022-08-19T08:07:03;15.73;;;5.70;;
49392;SDS011;35268;42.642;23.308;2022-08-19T08:09:48;14.07;;;5.93;;
49392;SDS011;35268;42.642;23.308;2022-08-19T08:12:26;12.45;;;6.20;;
49392;SDS011;35268;42.642;23.308;2022-08-19T08:14:55;9.98;;;5.50;;
49392;SDS011;35268;42.642;23.308;2022-08-19T08:17:23;14.50;;;5.30;;
49392;SDS011;35268;42.642;23.308;2022-08-19T08:19:51;16.35;;;4.82;;
49392;SDS011;35268;42.642;23.308;2022-08-19T08:22:18;16.02;;;5.07;;
49392;SDS011;35268;42.642;23.308;2022-08-19T08:25:04;14.20;;;5.22;;
49392;SDS011;35268;42.642;23.308;2022-08-19T08:27:41;19.02;;;4.93;;
49392;SDS011;35268;42.642;23.308;2022-08-19T08:30:13;13.57;;;6.68;;
49392;SDS011;35268;42.642;23.308;2022-08-19T08:35:07;12.93;;;4.10;;
49392;SDS011;35268;42.642;23.308;2022-08-19T08:37:34;18.00;;;4.38;;
49392;SDS011;35268;42.642;23.308;2022-08-19T08:40:09;14.57;;;4.93;;
49392;SDS011;35268;42.642;23.308;2022-08-19T08:42:45;9.07;;;4.15;;
49392;SDS011;35268;42.642;23.308;2022-08-19T08:45:23;11.90;;;3.92;;
49392;SDS011;35268;42.642;23.308;2022-08-19T08:47:50;12.00;;;4.38;;
49392;SDS011;35268;42.642;23.308;2022-08-19T08:50:20;10.95;;;3.67;;
49392;SDS011;35268;42.642;23.308;2022-08-19T08:52:50;6.95;;;4.25;;
49392;SDS011;35268;42.642;23.308;2022-08-19T08:55:23;10.00;;;3.70;;
49392;SDS011;35268;42.642;23.308;2022-08-19T09:00:28;4.75;;;3.00;;
49392;SDS011;35268;42.642;23.308;2022-08-19T09:02:56;12.30;;;4.18;;
49392;SDS011;35268;42.642;23.308;2022-08-19T09:05:23;10.55;;;3.85;;
49392;SDS011;35268;42.642;23.308;2022-08-19T09:08:13;8.10;;;3.55;;
49392;SDS011;35268;42.642;23.308;2022-08-19T09:10:53;13.30;;;4.95;;
49392;SDS011;35268;42.642;23.308;2022-08-19T09:16:24;8.95;;;4.07;;
49392;SDS011;35268;42.642;23.308;2022-08-19T09:18:54;10.75;;;3.90;;
49392;SDS011;35268;42.642;23.308;2022-08-19T09:21:23;6.25;;;3.53;;
49392;SDS011;35268;42.642;23.308;2022-08-19T09:23:50;6.03;;;3.50;;
49392;SDS011;35268;42.642;23.308;2022-08-19T09:26:18;13.65;;;3.92;;
49392;SDS011;35268;42.642;23.308;2022-08-19T09:28:48;13.77;;;3.83;;
49392;SDS011;35268;42.642;23.308;2022-08-19T09:31:18;8.43;;;3.88;;
49392;SDS011;35268;42.642;23.308;2022-08-19T09:33:47;10.63;;;3.65;;
49392;SDS011;35268;42.642;23.308;2022-08-19T09:36:14;7.32;;;3.10;;
49392;SDS011;35268;42.642;23.308;2022-08-19T09:38:41;7.28;;;3.90;;
49392;SDS011;35268;42.642;23.308;2022-08-19T09:41:08;6.30;;;3.05;;
49392;SDS011;35268;42.642;23.308;2022-08-19T09:43:38;7.68;;;3.25;;
49392;SDS011;35268;42.642;23.308;2022-08-19T09:46:05;8.32;;;2.97;;
49392;SDS011;35268;42.642;23.308;2022-08-19T09:48:32;7.78;;;3.05;;
49392;SDS011;35268;42.642;23.308;2022-08-19T09:51:17;10.65;;;2.85;;
49392;SDS011;35268;42.642;23.308;2022-08-19T09:53:45;9.45;;;3.30;;
49392;SDS011;35268;42.642;23.308;2022-08-19T09:56:12;6.35;;;3.17;;
49392;SDS011;35268;42.642;23.308;2022-08-19T09:58:38;8.00;;;3.40;;
49392;SDS011;35268;42.642;23.308;2022-08-19T10:01:05;11.07;;;3.10;;
49392;SDS011;35268;42.642;23.308;2022-08-19T10:03:33;5.90;;;3.72;;
49392;SDS011;35268;42.642;23.308;2022-08-19T10:06:01;13.25;;;3.83;;
49392;SDS011;35268;42.642;23.308;2022-08-19T10:08:34;5.50;;;3.25;;
49392;SDS011;35268;42.642;23.308;2022-08-19T10:11:01;8.20;;;3.20;;
49392;SDS011;35268;42.642;23.308;2022-08-19T10:13:29;6.90;;;3.55;;
49392;SDS011;35268;42.642;23.308;2022-08-19T10:16:01;5.70;;;3.25;;
49392;SDS011;35268;42.642;23.308;2022-08-19T10:18:33;12.65;;;3.17;;
49392;SDS011;35268;42.642;23.308;2022-08-19T10:21:04;7.90;;;3.45;;
49392;SDS011;35268;42.642;23.308;2022-08-19T10:23:36;8.65;;;3.90;;
49392;SDS011;35268;42.642;23.308;2022-08-19T10:26:07;7.30;;;3.08;;
49392;SDS011;35268;42.642;23.308;2022-08-19T10:28:33;4.63;;;3.22;;
49392;SDS011;35268;42.642;23.308;2022-08-19T10:31:05;7.60;;;3.17;;
49392;SDS011;35268;42.642;23.308;2022-08-19T10:33:33;9.32;;;3.28;;
49392;SDS011;35268;42.642;23.308;2022-08-19T10:36:02;14.93;;;3.50;;
49392;SDS011;35268;42.642;23.308;2022-08-19T10:38:30;8.38;;;3.75;;
49392;SDS011;35268;42.642;23.308;2022-08-19T10:40:56;6.80;;;3.33;;
49392;SDS011;35268;42.642;23.308;2022-08-19T10:43:21;7.43;;;3.42;;
49392;SDS011;35268;42.642;23.308;2022-08-19T10:45:53;7.72;;;3.60;;
49392;SDS011;35268;42.642;23.308;2022-08-19T10:48:24;11.38;;;3.70;;
49392;SDS011;35268;42.642;23.308;2022-08-19T10:50:49;10.40;;;3.45;;
49392;SDS011;35268;42.642;23.308;2022-08-19T10:53:33;7.90;;;3.53;;
49392;SDS011;35268;42.642;23.308;2022-08-19T10:55:59;7.50;;;3.33;;
49392;SDS011;35268;42.642;23.308;2022-08-19T10:58:43;6.28;;;3.45;;
49392;SDS011;35268;42.642;23.308;2022-08-19T11:01:09;6.65;;;3.78;;
49392;SDS011;35268;42.642;23.308;2022-08-19T11:03:35;4.55;;;3.25;;
49392;SDS011;35268;42.642;23.308;2022-08-19T11:06:00;13.00;;;3.30;;
49392;SDS011;35268;42.642;23.308;2022-08-19T11:08:28;6.72;;;3.20;;
49392;SDS011;35268;42.642;23.308;2022-08-19T11:10:57;8.70;;;3.53;;
49392;SDS011;35268;42.642;23.308;2022-08-19T11:13:30;5.60;;;3.72;;
49392;SDS011;35268;42.642;23.308;2022-08-19T11:15:59;8.88;;;3.55;;
49392;SDS011;35268;42.642;23.308;2022-08-19T11:18:26;8.05;;;3.65;;
49392;SDS011;35268;42.642;23.308;2022-08-19T11:20:51;13.60;;;4.65;;
49392;SDS011;35268;42.642;23.308;2022-08-19T11:23:17;10.48;;;3.85;;
49392;SDS011;35268;42.642;23.308;2022-08-19T11:25:43;13.23;;;3.47;;
49392;SDS011;35268;42.642;23.308;2022-08-19T11:28:10;10.05;;;3.75;;
49392;SDS011;35268;42.642;23.308;2022-08-19T11:30:36;5.20;;;3.13;;
49392;SDS011;35268;42.642;23.308;2022-08-19T11:33:03;6.78;;;3.60;;
49392;SDS011;35268;42.642;23.308;2022-08-19T11:35:28;7.18;;;3.72;;
49392;SDS011;35268;42.642;23.308;2022-08-19T11:37:53;7.40;;;3.95;;
49392;SDS011;35268;42.642;23.308;2022-08-19T11:40:20;12.90;;;4.15;;
49392;SDS011;35268;42.642;23.308;2022-08-19T11:42:46;11.60;;;4.07;;
49392;SDS011;35268;42.642;23.308;2022-08-19T11:45:22;12.00;;;3.42;;
49392;SDS011;35268;42.642;23.308;2022-08-19T11:47:51;7.85;;;3.47;;
49392;SDS011;35268;42.642;23.308;2022-08-19T11:50:17;11.75;;;3.35;;
49392;SDS011;35268;42.642;23.308;2022-08-19T11:52:42;9.95;;;3.58;;
49392;SDS011;35268;42.642;23.308;2022-08-19T11:55:09;9.95;;;3.40;;
49392;SDS011;35268;42.642;23.308;2022-08-19T11:57:35;7.97;;;3.60;;
49392;SDS011;35268;42.642;23.308;2022-08-19T12:00:01;6.35;;;3.65;;
49392;SDS011;35268;42.642;23.308;2022-08-19T12:02:30;8.02;;;3.70;;
49392;SDS011;35268;42.642;23.308;2022-08-19T12:04:56;6.82;;;3.40;;
49392;SDS011;35268;42.642;23.308;2022-08-19T12:07:22;7.35;;;3.53;;
49392;SDS011;35268;42.642;23.308;2022-08-19T12:09:47;5.03;;;3.20;;
49392;SDS011;35268;42.642;23.308;2022-08-19T12:12:13;6.40;;;3.13;;
49392;SDS011;35268;42.642;23.308;2022-08-19T12:14:39;7.85;;;3.40;;
49392;SDS011;35268;42.642;23.308;2022-08-19T12:17:04;9.13;;;3.53;;
49392;SDS011;35268;42.642;23.308;2022-08-19T12:19:32;8.57;;;3.45;;
49392;SDS011;35268;42.642;23.308;2022-08-19T12:21:59;5.82;;;3.80;;
49392;SDS011;35268;42.642;23.308;2022-08-19T12:24:28;6.30;;;3.33;;
49392;SDS011;35268;42.642;23.308;2022-08-19T12:26:57;6.60;;;2.97;;
49392;SDS011;35268;42.642;23.308;2022-08-19T12:29:24;6.65;;;3.08;;
49392;SDS011;35268;42.642;23.308;2022-08-19T12:31:53;11.65;;;3.25;;
49392;SDS011;35268;42.642;23.308;2022-08-19T12:34:19;8.30;;;3.15;;
49392;SDS011;35268;42.642;23.308;2022-08-19T12:36:45;6.28;;;3.40;;
49392;SDS011;35268;42.642;23.308;2022-08-19T12:39:10;5.95;;;3.38;;
49392;SDS011;35268;42.642;23.308;2022-08-19T12:41:36;11.93;;;3.30;;
49392;SDS011;35268;42.642;23.308;2022-08-19T12:44:02;6.03;;;3.53;;
49392;SDS011;35268;42.642;23.308;2022-08-19T12:46:28;10.07;;;3.92;;
49392;SDS011;35268;42.642;23.308;2022-08-19T12:48:53;9.27;;;4.15;;
49392;SDS011;35268;42.642;23.308;2022-08-19T12:51:19;28.42;;;4.68;;
49392;SDS011;35268;42.642;23.308;2022-08-19T12:53:45;12.90;;;3.92;;
49392;SDS011;35268;42.642;23.308;2022-08-19T12:56:11;14.05;;;4.60;;
49392;SDS011;35268;42.642;23.308;2022-08-19T12:58:39;6.60;;;3.78;;
49392;SDS011;35268;42.642;23.308;2022-08-19T13:01:13;8.15;;;3.78;;
49392;SDS011;35268;42.642;23.308;2022-08-19T13:03:41;12.15;;;3.55;;
49392;SDS011;35268;42.642;23.308;2022-08-19T13:06:08;15.18;;;4.20;;
49392;SDS011;35268;42.642;23.308;2022-08-19T13:08:34;7.75;;;3.50;;
49392;SDS011;35268;42.642;23.308;2022-08-19T13:11:07;5.82;;;3.45;;
49392;SDS011;35268;42.642;23.308;2022-08-19T13:13:40;6.97;;;3.45;;
49392;SDS011;35268;42.642;23.308;2022-08-19T13:16:08;7.10;;;3.30;;
49392;SDS011;35268;42.642;23.308;2022-08-19T13:18:35;10.35;;;3.13;;
49392;SDS011;35268;42.642;23.308;2022-08-19T13:21:04;6.45;;;3.25;;
49392;SDS011;35268;42.642;23.308;2022-08-19T13:23:31;9.73;;;3.20;;
49392;SDS011;35268;42.642;23.308;2022-08-19T13:26:07;10.30;;;3.42;;
49392;SDS011;35268;42.642;23.308;2022-08-19T13:28:34;12.30;;;3.85;;
49392;SDS011;35268;42.642;23.308;2022-08-19T13:31:19;11.93;;;3.70;;
49392;SDS011;35268;42.642;23.308;2022-08-19T13:34:05;9.13;;;3.35;;
49392;SDS011;35268;42.642;23.308;2022-08-19T13:36:32;5.57;;;3.55;;
49392;SDS011;35268;42.642;23.308;2022-08-19T13:38:58;10.95;;;3.80;;
49392;SDS011;35268;42.642;23.308;2022-08-19T13:41:23;6.32;;;3.55;;
49392;SDS011;35268;42.642;23.308;2022-08-19T13:43:49;11.23;;;4.05;;
49392;SDS011;35268;42.642;23.308;2022-08-19T13:46:15;6.80;;;3.47;;
49392;SDS011;35268;42.642;23.308;2022-08-19T13:48:40;5.68;;;3.05;;
49392;SDS011;35268;42.642;23.308;2022-08-19T13:51:07;8.95;;;3.50;;
49392;SDS011;35268;42.642;23.308;2022-08-19T13:53:36;6.18;;;3.08;;
49392;SDS011;35268;42.642;23.308;2022-08-19T13:56:09;7.22;;;3.08;;
49392;SDS011;35268;42.642;23.308;2022-08-19T13:58:36;8.45;;;3.08;;
49392;SDS011;35268;42.642;23.308;2022-08-19T14:01:03;8.20;;;3.40;;
49392;SDS011;35268;42.642;23.308;2022-08-19T14:03:30;14.65;;;3.17;;
49392;SDS011;35268;42.642;23.308;2022-08-19T14:05:56;5.05;;;3.40;;
49392;SDS011;35268;42.642;23.308;2022-08-19T14:08:21;8.13;;;3.25;;
49392;SDS011;35268;42.642;23.308;2022-08-19T14:10:47;7.43;;;3.10;;
49392;SDS011;35268;42.642;23.308;2022-08-19T14:13:15;5.20;;;3.05;;
49392;SDS011;35268;42.642;23.308;2022-08-19T14:15:43;8.25;;;2.88;;
49392;SDS011;35268;42.642;23.308;2022-08-19T14:18:08;5.88;;;2.95;;
49392;SDS011;35268;42.642;23.308;2022-08-19T14:20:34;5.32;;;3.08;;
49392;SDS011;35268;42.642;23.308;2022-08-19T14:23:00;11.32;;;3.10;;
49392;SDS011;35268;42.642;23.308;2022-08-19T14:25:26;8.25;;;2.75;;
49392;SDS011;35268;42.642;23.308;2022-08-19T14:27:54;6.05;;;2.97;;
49392;SDS011;35268;42.642;23.308;2022-08-19T14:30:25;7.82;;;2.95;;
49392;SDS011;35268;42.642;23.308;2022-08-19T14:32:53;6.57;;;3.00;;
49392;SDS011;35268;42.642;23.308;2022-08-19T14:35:19;4.88;;;2.80;;
49392;SDS011;35268;42.642;23.308;2022-08-19T14:37:46;7.97;;;3.30;;
49392;SDS011;35268;42.642;23.308;2022-08-19T14:40:15;8.50;;;3.03;;
49392;SDS011;35268;42.642;23.308;2022-08-19T14:42:45;8.93;;;2.60;;